TimeMDT,TemperatureF,Dew PointF,Humidity,Sea Level PressureIn,VisibilityMPH,Wind Direction,Wind SpeedMPH,Gust SpeedMPH,PrecipitationIn,Events,Conditions,WindDirDegrees,DateUTC
12:51 AM,52.0,30.9,45,29.87,10.0,South,18.4,24.2,N/A,,Overcast,180,2012-11-01 06:51:00
1:51 AM,48.9,34.0,56,29.86,10.0,SSE,9.2,19.6,0.00,,Overcast,160,2012-11-01 07:51:00
2:51 AM,46.9,35.1,63,29.88,10.0,SSW,10.4,24.2,0.01,Rain,Light Rain,210,2012-11-01 08:51:00
3:51 AM,43.0,37.9,82,29.91,10.0,South,9.2,-,0.03,Rain,Light Rain,190,2012-11-01 09:51:00
4:51 AM,42.1,37.9,85,29.90,10.0,SSE,6.9,-,0.03,Rain,Light Rain,160,2012-11-01 10:51:00
5:51 AM,42.1,37.9,85,29.91,10.0,SE,6.9,-,0.00,,Overcast,130,2012-11-01 11:51:00
6:51 AM,42.1,37.0,82,29.92,10.0,SE,9.2,-,N/A,,Overcast,130,2012-11-01 12:51:00
7:26 AM,41.0,37.4,87,29.93,10.0,South,4.6,-,N/A,,Mostly Cloudy,170,2012-11-01 13:26:00
7:51 AM,39.9,36.0,86,29.92,10.0,SSE,4.6,-,N/A,,Mostly Cloudy,150,2012-11-01 13:51:00
7:59 AM,39.2,35.6,87,29.93,10.0,South,4.6,-,N/A,,Mostly Cloudy,170,2012-11-01 13:59:00
8:19 AM,41.0,35.6,81,29.93,10.0,SE,8.1,-,N/A,,Overcast,130,2012-11-01 14:19:00
8:51 AM,41.0,36.0,82,29.94,10.0,SSE,9.2,-,N/A,,Mostly Cloudy,150,2012-11-01 14:51:00
9:19 AM,41.0,35.6,81,29.94,10.0,SSE,8.1,-,N/A,,Scattered Clouds,150,2012-11-01 15:19:00
9:45 AM,41.0,37.4,87,29.95,10.0,SSE,10.4,-,N/A,,Mostly Cloudy,160,2012-11-01 15:45:00
9:51 AM,41.0,37.0,86,29.94,10.0,SSE,9.2,-,N/A,,Mostly Cloudy,150,2012-11-01 15:51:00
10:51 AM,43.0,37.9,82,29.94,10.0,ESE,9.2,-,N/A,,Overcast,120,2012-11-01 16:51:00
11:51 AM,44.1,37.0,76,29.91,10.0,SSE,8.1,-,N/A,,Overcast,160,2012-11-01 17:51:00
12:51 PM,42.1,39.0,89,29.94,7.0,SSW,8.1,-,0.01,Rain,Light Rain,200,2012-11-01 18:51:00
1:02 PM,42.8,37.4,81,29.97,10.0,SW,6.9,-,0.00,,Overcast,220,2012-11-01 19:02:00
1:08 PM,42.8,37.4,81,29.97,10.0,SSW,6.9,-,0.00,Rain,Light Rain,210,2012-11-01 19:08:00
1:51 PM,43.0,37.0,80,29.94,10.0,South,5.8,-,0.01,Rain,Light Rain,170,2012-11-01 19:51:00
2:02 PM,42.8,35.6,76,29.96,10.0,SE,6.9,-,0.00,,Overcast,140,2012-11-01 20:02:00
2:51 PM,45.0,36.0,71,29.94,10.0,SSW,5.8,-,0.00,,Overcast,210,2012-11-01 20:51:00
3:51 PM,48.0,34.0,58,29.94,10.0,South,12.7,-,N/A,,Mostly Cloudy,190,2012-11-01 21:51:00
4:51 PM,46.0,34.0,63,29.96,10.0,South,4.6,-,0.00,Rain,Light Rain,180,2012-11-01 22:51:00
5:51 PM,45.0,35.1,68,29.96,10.0,Calm,Calm,-,0.00,,Mostly Cloudy,0,2012-11-01 23:51:00
6:51 PM,43.0,36.0,76,29.98,10.0,SSW,4.6,-,N/A,,Overcast,210,2012-11-02 00:51:00
7:11 PM,41.0,35.6,81,30.00,7.0,West,8.1,-,0.01,Rain,Rain,260,2012-11-02 01:11:00
7:36 PM,39.2,35.6,87,30.01,10.0,ESE,4.6,-,N/A,,Mostly Cloudy,110,2012-11-02 01:36:00
7:51 PM,39.0,37.0,93,30.03,10.0,Calm,Calm,-,0.03,,Mostly Cloudy,0,2012-11-02 01:51:00
8:51 PM,37.0,36.0,96,30.04,10.0,Calm,Calm,-,N/A,,Scattered Clouds,0,2012-11-02 02:51:00
9:51 PM,36.0,35.1,97,30.05,7.0,Calm,Calm,-,N/A,,Scattered Clouds,0,2012-11-02 03:51:00
10:51 PM,36.0,34.0,93,30.07,10.0,Calm,Calm,-,N/A,,Overcast,0,2012-11-02 04:51:00
11:51 PM,36.0,34.0,93,30.09,10.0,Calm,Calm,-,N/A,,Overcast,0,2012-11-02 05:51:00